Montmorenci, Indiana
Current Conditions -  °F | °C
As of 11:54 PM on Saturday 22 Nov 2014 (Local Time) from KLAF Reporting Station
Light Rain Light Rain  
Wind Chill: 45°   Ceiling: 7000
Heat Index: 48°   Visibility: 8mi
Dew Point: 45°   Wind: 6mph
Humidity: 89%   Direction: 180°S
Pressure: 29.95"   Gusts: NA
Location:  40.47°N, 87.03°W
Report Text: KLAF 230454Z AUTO 18005KT 8SM -RA FEW046 BKN070 OVC085 09/07 A2995 RMK AO2 SLP142 P0006 T00890072 401280000 TSNO
Loading
Personal Weather Stations






























Interactive Weather Map New forecast layout! Learn more

10-Day Weather Forecast

Advertisements
Track Severe Weather on mobile